Athens, Wisconsin
Current Conditions -  °F | °C
As of 2:15 AM on Monday 26 Jan 2015 (Local Time) from KMDZ Reporting Station
Broken Clouds Broken Clouds  
Wind Chill:   Ceiling: 12000
Heat Index: 13°   Visibility: 10mi
Dew Point:   Wind: 10mph
Humidity: 75%   Direction: 180°S
Pressure: 29.91"   Gusts: NA
Location:  45.03°N, 90.07°W
Report Text: KMDZ 260815Z AUTO 18009KT 10SM SCT055 BKN120 M10/M14 A2991 RMK AO2 T11051142
Loading
Personal Weather Stations






























Interactive Weather Map New forecast layout! Learn more

10-Day Weather Forecast

Advertisements
Track Severe Weather on mobile